createdAt,value
2018-08-19T00:00:26.618Z,21.60
2018-08-19T00:02:58.734Z,21.60
2018-08-19T00:05:27.141Z,21.60
2018-08-19T00:07:55.573Z,21.50
2018-08-19T00:10:38.417Z,21.50
2018-08-19T00:13:08.101Z,21.40
2018-08-19T00:15:37.286Z,21.40
2018-08-19T00:18:07.374Z,21.40
2018-08-19T00:20:35.720Z,21.40
2018-08-19T00:23:04.295Z,21.40
2018-08-19T00:25:42.607Z,21.40
2018-08-19T00:28:12.661Z,21.50
2018-08-19T00:30:40.981Z,21.40
2018-08-19T00:33:09.906Z,21.40
2018-08-19T00:35:38.273Z,21.40
2018-08-19T00:38:11.143Z,21.30
2018-08-19T00:40:39.992Z,21.30
2018-08-19T00:43:08.397Z,21.30
2018-08-19T00:45:36.957Z,21.30
2018-08-19T00:48:05.364Z,21.20
2018-08-19T00:50:33.675Z,21.20
2018-08-19T00:53:01.992Z,21.20
2018-08-19T00:55:36.534Z,21.10
2018-08-19T00:58:12.472Z,21.20
2018-08-19T01:00:40.820Z,21.10
2018-08-19T01:03:10.143Z,21.10
2018-08-19T01:05:38.528Z,21.10
2018-08-19T01:08:07.059Z,21.10
2018-08-19T01:10:35.347Z,21.10
2018-08-19T01:13:03.727Z,21.10
2018-08-19T01:15:32.168Z,21.00
2018-08-19T01:18:00.541Z,21.10
2018-08-19T01:20:28.843Z,21.10
2018-08-19T01:22:57.165Z,21.10
2018-08-19T01:25:25.541Z,21.20
2018-08-19T01:27:53.962Z,21.10
2018-08-19T01:30:25.739Z,21.10
2018-08-19T01:32:54.106Z,21.10
2018-08-19T01:35:32.477Z,21.00
2018-08-19T01:38:00.880Z,21.00
2018-08-19T01:40:29.220Z,20.90
2018-08-19T01:42:57.532Z,20.90
2018-08-19T01:45:25.982Z,21.00
2018-08-19T01:47:54.344Z,21.00
2018-08-19T01:50:22.658Z,21.00
2018-08-19T01:52:51.123Z,21.00
2018-08-19T01:55:19.729Z,20.90
2018-08-19T01:57:50.867Z,20.90
2018-08-19T02:00:19.632Z,21.00
2018-08-19T02:02:57.522Z,21.00
2018-08-19T02:05:26.240Z,20.90
2018-08-19T02:07:56.987Z,20.80
2018-08-19T02:10:25.850Z,20.80
2018-08-19T02:12:55.349Z,20.80
2018-08-19T02:15:24.870Z,20.90
2018-08-19T02:17:59.169Z,20.80
2018-08-19T02:20:34.767Z,20.80
2018-08-19T02:23:10.748Z,20.70
2018-08-19T02:25:42.198Z,20.70
2018-08-19T02:28:10.986Z,20.60
2018-08-19T02:31:02.421Z,20.60
2018-08-19T02:33:33.146Z,20.60
2018-08-19T02:36:03.469Z,20.60
2018-08-19T02:38:32.045Z,20.60
2018-08-19T02:41:00.356Z,20.60
2018-08-19T02:43:28.818Z,20.60
2018-08-19T02:45:57.113Z,20.70
2018-08-19T02:48:41.070Z,20.70
2018-08-19T02:51:10.706Z,20.70
2018-08-19T02:53:39.018Z,20.70
2018-08-19T02:56:07.361Z,20.70
2018-08-19T02:58:35.633Z,20.70
2018-08-19T03:01:03.975Z,20.60
2018-08-19T03:03:32.250Z,20.60
2018-08-19T03:06:01.910Z,20.60
2018-08-19T03:08:31.000Z,20.60
2018-08-19T03:10:59.460Z,20.60
2018-08-19T03:13:27.912Z,20.70
2018-08-19T03:15:56.852Z,20.70
2018-08-19T03:18:25.495Z,20.60
2018-08-19T03:20:53.826Z,20.70
2018-08-19T03:23:22.171Z,20.80
2018-08-19T03:25:50.524Z,20.80
2018-08-19T03:28:18.826Z,20.80
2018-08-19T03:30:53.321Z,20.70
2018-08-19T03:33:21.634Z,20.70
2018-08-19T03:35:50.027Z,20.60
2018-08-19T03:38:18.343Z,20.50
2018-08-19T03:40:46.647Z,20.50
2018-08-19T03:43:14.978Z,20.50
2018-08-19T03:45:43.317Z,20.60
2018-08-19T03:48:11.673Z,20.60
2018-08-19T03:50:40.200Z,20.60
2018-08-19T03:53:08.512Z,20.50
2018-08-19T03:55:37.918Z,20.40
2018-08-19T03:58:08.346Z,20.30
2018-08-19T04:00:38.491Z,20.30
2018-08-19T04:03:14.426Z,20.20
2018-08-19T04:05:46.262Z,20.20
2018-08-19T04:08:16.014Z,20.20
2018-08-19T04:10:47.541Z,20.20
2018-08-19T04:13:41.581Z,20.30
2018-08-19T04:16:12.757Z,20.20
2018-08-19T04:18:45.473Z,20.10
2018-08-19T04:21:17.701Z,20.10
2018-08-19T04:23:49.889Z,20.10
2018-08-19T04:26:19.524Z,20.10
2018-08-19T04:28:48.417Z,20.20
2018-08-19T04:31:22.077Z,20.30
2018-08-19T04:33:51.634Z,20.30
2018-08-19T04:36:25.347Z,20.30
2018-08-19T04:38:54.541Z,20.30
2018-08-19T04:41:23.702Z,20.30
2018-08-19T04:43:54.351Z,20.30
2018-08-19T04:46:23.938Z,20.40
2018-08-19T04:48:53.961Z,20.30
2018-08-19T04:51:23.827Z,20.30
2018-08-19T04:53:56.311Z,20.30
2018-08-19T04:56:25.437Z,20.20
2018-08-19T04:58:55.406Z,20.20
2018-08-19T05:01:24.406Z,20.30
2018-08-19T05:03:54.858Z,20.20
2018-08-19T05:06:23.392Z,20.30
2018-08-19T05:08:51.858Z,20.30
2018-08-19T05:11:21.291Z,20.20
2018-08-19T05:13:50.093Z,20.30
2018-08-19T05:16:18.813Z,20.30
2018-08-19T05:18:52.660Z,20.20
2018-08-19T05:21:27.726Z,20.30
2018-08-19T05:23:57.290Z,20.20
2018-08-19T05:26:26.130Z,20.10
2018-08-19T05:29:06.174Z,20.10
2018-08-19T05:31:39.012Z,20.20
2018-08-19T05:34:12.971Z,20.20
2018-08-19T05:36:41.712Z,20.20
2018-08-19T05:39:10.643Z,20.20
2018-08-19T05:41:38.976Z,20.30
2018-08-19T05:44:07.914Z,20.30
2018-08-19T05:46:37.179Z,20.30
2018-08-19T05:49:06.534Z,20.30
2018-08-19T05:51:38.981Z,20.30
2018-08-19T05:54:08.991Z,20.20
2018-08-19T05:56:38.758Z,20.20
2018-08-19T05:59:07.318Z,20.30
2018-08-19T06:01:37.315Z,20.30
2018-08-19T06:04:05.983Z,20.30
2018-08-19T06:06:35.262Z,20.40
2018-08-19T06:09:04.593Z,20.50
2018-08-19T06:11:33.561Z,20.50
2018-08-19T06:14:02.457Z,20.50
2018-08-19T06:16:31.759Z,20.40
2018-08-19T06:19:01.539Z,20.40
2018-08-19T06:21:31.853Z,20.50
2018-08-19T06:24:00.642Z,20.50
2018-08-19T06:26:34.843Z,20.50
2018-08-19T06:29:03.659Z,20.70
2018-08-19T06:31:32.459Z,20.60
2018-08-19T06:34:01.044Z,20.70
2018-08-19T06:36:29.451Z,20.80
2018-08-19T06:38:57.765Z,20.70
2018-08-19T06:41:26.517Z,20.70
2018-08-19T06:43:54.765Z,20.90
2018-08-19T06:46:23.021Z,20.90
2018-08-19T06:48:51.344Z,20.90
2018-08-19T06:51:19.664Z,20.90
2018-08-19T06:53:48.716Z,20.90
2018-08-19T06:56:17.075Z,20.80
2018-08-19T06:58:45.441Z,20.80
2018-08-19T07:01:13.737Z,20.80
2018-08-19T07:03:46.805Z,20.70
2018-08-19T07:06:15.436Z,20.70
2018-08-19T07:08:43.690Z,20.80
2018-08-19T07:11:12.061Z,20.80
2018-08-19T07:13:40.347Z,20.80
2018-08-19T07:16:08.638Z,20.90
2018-08-19T07:18:37.066Z,20.90
2018-08-19T07:21:05.462Z,21.00
2018-08-19T07:23:34.572Z,21.00
2018-08-19T07:26:02.894Z,21.00
2018-08-19T07:28:31.172Z,21.00
2018-08-19T07:30:59.443Z,21.10
2018-08-19T07:33:28.563Z,21.20
2018-08-19T07:35:56.851Z,21.10
2018-08-19T07:38:25.143Z,21.10
2018-08-19T07:40:54.574Z,21.10
2018-08-19T07:43:22.834Z,21.20
2018-08-19T07:45:51.263Z,21.20
2018-08-19T07:48:19.617Z,21.20
2018-08-19T07:50:47.909Z,21.20
2018-08-19T07:53:16.189Z,21.20
2018-08-19T07:55:44.704Z,21.20
2018-08-19T07:58:13.007Z,21.20
2018-08-19T08:00:41.915Z,21.30
2018-08-19T08:03:10.334Z,21.40
2018-08-19T08:05:46.961Z,21.40
2018-08-19T08:08:15.289Z,21.50
2018-08-19T08:10:43.630Z,21.50
2018-08-19T08:13:13.022Z,21.60
2018-08-19T08:15:47.015Z,21.60
2018-08-19T08:18:15.435Z,21.70
2018-08-19T08:20:43.997Z,21.70
2018-08-19T08:23:18.243Z,21.70
2018-08-19T08:25:47.958Z,21.80
2018-08-19T08:28:16.860Z,21.80
2018-08-19T08:30:45.490Z,21.90
2018-08-19T08:33:13.870Z,21.90
2018-08-19T08:35:47.918Z,21.90
2018-08-19T08:38:17.810Z,21.80
2018-08-19T08:40:47.167Z,21.80
2018-08-19T08:43:15.398Z,21.80
2018-08-19T08:45:44.168Z,21.90
2018-08-19T08:48:12.512Z,21.90
2018-08-19T08:50:40.816Z,22.00
2018-08-19T08:53:09.461Z,22.10
2018-08-19T08:55:37.933Z,22.00
2018-08-19T08:58:06.957Z,22.00
2018-08-19T09:00:35.855Z,22.00
2018-08-19T09:03:04.588Z,22.10
2018-08-19T09:05:33.084Z,22.20
2018-08-19T09:08:01.594Z,22.20
2018-08-19T09:10:30.103Z,22.30
2018-08-19T09:12:58.595Z,22.30
2018-08-19T09:15:27.416Z,22.40
2018-08-19T09:17:56.029Z,22.50
2018-08-19T09:20:24.901Z,22.50
2018-08-19T09:22:55.222Z,22.50
2018-08-19T09:25:23.604Z,22.60
2018-08-19T09:27:52.180Z,22.50
2018-08-19T09:30:29.977Z,22.60
2018-08-19T09:32:59.548Z,22.70
2018-08-19T09:35:32.464Z,22.70
2018-08-19T09:38:06.242Z,22.70
2018-08-19T09:40:35.428Z,22.70
2018-08-19T09:43:03.878Z,22.70
2018-08-19T09:45:32.622Z,22.70
2018-08-19T09:48:02.828Z,22.80
2018-08-19T09:50:34.717Z,22.80
2018-08-19T09:53:05.290Z,22.80
2018-08-19T09:55:44.293Z,23.00
2018-08-19T09:58:21.675Z,23.00
2018-08-19T10:00:56.151Z,23.10
2018-08-19T10:03:24.901Z,23.20
2018-08-19T10:05:54.109Z,23.20
2018-08-19T10:08:24.707Z,23.30
2018-08-19T10:10:53.060Z,23.30
2018-08-19T10:13:21.411Z,23.30
2018-08-19T10:15:51.240Z,23.40
2018-08-19T10:18:20.248Z,23.50
2018-08-19T10:20:48.778Z,23.50
2018-08-19T10:23:17.007Z,23.50
2018-08-19T10:25:45.720Z,23.50
2018-08-19T10:28:14.069Z,23.50
2018-08-19T10:30:48.374Z,23.60
2018-08-19T10:33:18.091Z,23.70
2018-08-19T10:35:47.813Z,23.70
2018-08-19T10:38:16.295Z,23.70
2018-08-19T10:41:08.839Z,23.70
2018-08-19T10:43:37.410Z,23.70
2018-08-19T10:46:12.489Z,23.80
2018-08-19T10:48:41.260Z,23.80
2018-08-19T10:51:10.496Z,23.80
2018-08-19T10:53:39.680Z,23.90
2018-08-19T10:56:08.148Z,23.90
2018-08-19T10:58:37.746Z,23.80
2018-08-19T11:01:13.307Z,23.80
2018-08-19T11:03:42.254Z,23.90
2018-08-19T11:06:13.326Z,23.90
2018-08-19T11:08:50.433Z,24.00
2018-08-19T11:11:19.229Z,24.00
2018-08-19T11:13:48.811Z,24.10
2018-08-19T11:16:18.409Z,24.10
2018-08-19T11:18:49.272Z,24.20
2018-08-19T11:21:32.052Z,24.10
2018-08-19T11:24:01.125Z,24.10
2018-08-19T11:26:29.596Z,24.10
2018-08-19T11:29:03.363Z,24.20
2018-08-19T11:31:33.886Z,24.30
2018-08-19T11:34:08.498Z,24.40
2018-08-19T11:36:42.014Z,24.40
2018-08-19T11:39:12.228Z,24.40
2018-08-19T11:41:40.586Z,24.40
2018-08-19T11:44:14.018Z,24.30
2018-08-19T11:46:42.326Z,24.30
2018-08-19T11:49:12.786Z,24.30
2018-08-19T11:51:51.009Z,24.30
2018-08-19T11:54:20.261Z,24.30
2018-08-19T11:56:59.319Z,24.10
2018-08-19T11:59:33.090Z,24.20
2018-08-19T12:02:02.117Z,24.30
2018-08-19T12:04:30.895Z,24.20
2018-08-19T12:06:59.560Z,24.30
2018-08-19T12:09:28.369Z,24.30
2018-08-19T12:12:00.027Z,24.40
2018-08-19T12:14:35.482Z,24.50
2018-08-19T12:17:11.552Z,24.50
2018-08-19T12:19:44.154Z,24.60
2018-08-19T12:22:14.209Z,24.60
2018-08-19T12:24:48.233Z,24.70
2018-08-19T12:27:21.007Z,24.80
2018-08-19T12:29:50.046Z,24.90
2018-08-19T12:32:26.376Z,24.90
2018-08-19T12:35:00.812Z,25.00
2018-08-19T12:37:31.698Z,25.00
2018-08-19T12:40:19.284Z,25.10
2018-08-19T12:42:54.628Z,25.10
2018-08-19T12:45:23.986Z,25.20
2018-08-19T12:47:53.202Z,25.20
2018-08-19T12:50:24.760Z,25.30
2018-08-19T12:52:54.068Z,25.30
2018-08-19T12:55:26.723Z,25.30
2018-08-19T12:58:00.996Z,25.20
2018-08-19T13:00:29.993Z,25.20
2018-08-19T13:02:58.725Z,25.20
2018-08-19T13:05:28.919Z,25.20
2018-08-19T13:07:57.514Z,25.20
2018-08-19T13:10:34.410Z,25.20
2018-08-19T13:13:02.789Z,25.20
2018-08-19T13:15:31.750Z,25.30
2018-08-19T13:18:00.081Z,25.30
2018-08-19T13:20:28.541Z,25.40
2018-08-19T13:23:00.115Z,25.50
2018-08-19T13:25:29.478Z,25.40
2018-08-19T13:27:57.754Z,25.50
2018-08-19T13:30:26.809Z,25.50
2018-08-19T13:32:55.178Z,25.30
2018-08-19T13:35:24.645Z,25.40
2018-08-19T13:37:53.092Z,25.40
2018-08-19T13:40:21.813Z,25.40
2018-08-19T13:42:51.461Z,25.50
2018-08-19T13:45:20.956Z,25.40
2018-08-19T13:47:54.266Z,25.40
2018-08-19T13:50:22.696Z,25.30
2018-08-19T13:52:51.187Z,25.40
2018-08-19T13:55:20.403Z,25.50
2018-08-19T13:57:49.012Z,25.50
2018-08-19T14:00:18.577Z,25.40
2018-08-19T14:02:48.619Z,25.40
2018-08-19T14:05:17.542Z,25.40
2018-08-19T14:07:45.814Z,25.50
2018-08-19T14:10:15.883Z,25.50
2018-08-19T14:12:44.454Z,25.60
2018-08-19T14:15:12.722Z,25.50
2018-08-19T14:17:41.005Z,25.50
2018-08-19T14:20:10.624Z,25.50
2018-08-19T14:22:39.180Z,25.50
2018-08-19T14:25:08.906Z,25.50
2018-08-19T14:27:37.326Z,25.50
2018-08-19T14:32:46.521Z,25.50
2018-08-19T14:35:14.776Z,25.60
2018-08-19T14:37:43.154Z,25.60
2018-08-19T14:40:15.079Z,25.50
2018-08-19T14:42:43.325Z,25.40
2018-08-19T14:45:12.489Z,25.40
2018-08-19T14:47:40.736Z,25.30
2018-08-19T14:50:11.618Z,25.30
2018-08-19T14:52:39.878Z,25.20
2018-08-19T14:55:08.669Z,25.30
2018-08-19T14:57:37.136Z,25.30
2018-08-19T15:00:08.568Z,25.30
2018-08-19T15:02:37.240Z,25.30
2018-08-19T15:05:05.702Z,25.20
2018-08-19T15:07:33.960Z,25.30
2018-08-19T15:10:02.330Z,25.30
2018-08-19T15:12:30.578Z,25.20
2018-08-19T15:15:00.051Z,25.20
2018-08-19T15:17:28.498Z,25.20
2018-08-19T15:20:00.212Z,25.30
2018-08-19T15:22:28.640Z,25.20
2018-08-19T15:24:56.978Z,25.10
2018-08-19T15:27:25.360Z,25.20
2018-08-19T15:29:54.784Z,25.10
2018-08-19T15:32:24.903Z,25.10
2018-08-19T15:34:53.259Z,25.10
2018-08-19T15:37:22.819Z,25.00
2018-08-19T15:56:32.166Z,24.80
2018-08-19T16:12:56.891Z,24.40
2018-08-19T16:15:26.960Z,24.00
2018-08-19T16:17:56.998Z,23.90
2018-08-19T16:20:26.146Z,23.70
2018-08-19T16:22:56.993Z,23.80
2018-08-19T16:25:25.752Z,23.70
2018-08-19T16:27:55.700Z,23.70
2018-08-19T16:30:24.396Z,23.60
2018-08-19T16:32:53.115Z,23.50
2018-08-19T16:35:23.439Z,23.40
2018-08-19T16:37:52.183Z,23.40
2018-08-19T16:40:20.797Z,23.40
2018-08-19T16:42:49.670Z,23.30
2018-08-19T16:45:18.385Z,23.40
2018-08-19T16:47:47.232Z,23.20
2018-08-19T16:50:15.843Z,23.20
2018-08-19T16:52:45.264Z,23.20
2018-08-19T16:55:13.901Z,23.20
2018-08-19T16:57:42.647Z,23.20
2018-08-19T17:00:11.393Z,23.20
2018-08-19T17:02:40.933Z,23.20
2018-08-19T17:05:20.836Z,23.20
2018-08-19T17:07:49.632Z,23.10
2018-08-19T17:10:25.587Z,23.00
2018-08-19T17:12:54.117Z,23.10
2018-08-19T17:15:22.826Z,23.20
2018-08-19T17:17:51.376Z,23.00
2018-08-19T17:20:19.822Z,23.00
2018-08-19T17:22:48.858Z,23.00
2018-08-19T17:25:17.432Z,22.90
2018-08-19T17:27:45.986Z,22.80
2018-08-19T17:30:27.029Z,22.70
2018-08-19T17:33:05.778Z,22.60
2018-08-19T17:35:34.670Z,22.70
2018-08-19T17:38:03.234Z,22.70
2018-08-19T17:40:33.450Z,22.70
2018-08-19T17:43:06.817Z,22.70
2018-08-19T17:45:35.564Z,22.80
2018-08-19T17:48:05.468Z,22.70
2018-08-19T17:50:41.249Z,22.80
2018-08-19T17:53:09.992Z,22.60
2018-08-19T17:55:42.096Z,22.60
2018-08-19T17:58:14.207Z,22.60
2018-08-19T18:00:43.799Z,22.60
2018-08-19T18:03:13.107Z,22.50
2018-08-19T18:05:44.287Z,22.60
2018-08-19T18:08:21.233Z,22.60
2018-08-19T18:11:02.544Z,22.60
2018-08-19T18:13:33.946Z,22.50
2018-08-19T18:16:04.035Z,22.50
2018-08-19T18:18:32.662Z,22.50
2018-08-19T18:21:04.153Z,22.50
2018-08-19T18:23:33.912Z,22.50
2018-08-19T18:26:02.731Z,22.50
2018-08-19T18:28:32.348Z,22.50
2018-08-19T18:33:52.091Z,22.40
2018-08-19T18:36:22.924Z,22.50
2018-08-19T18:38:52.273Z,22.50
2018-08-19T18:41:26.821Z,22.50
2018-08-19T18:43:59.903Z,22.50
2018-08-19T18:46:28.909Z,22.50
2018-08-19T18:49:13.753Z,22.50
2018-08-19T18:51:44.293Z,22.50
2018-08-19T18:54:24.440Z,22.50
2018-08-19T18:56:54.570Z,22.50
2018-08-19T18:59:23.175Z,22.50
2018-08-19T19:01:51.866Z,22.40
2018-08-19T19:04:20.880Z,22.40
2018-08-19T19:06:49.754Z,22.30
2018-08-19T19:09:20.904Z,22.30
2018-08-19T19:11:52.204Z,22.30
2018-08-19T19:14:21.839Z,22.30
2018-08-19T19:16:52.223Z,22.30
2018-08-19T19:19:20.812Z,22.10
2018-08-19T19:21:53.145Z,22.30
2018-08-19T19:24:28.852Z,22.40
2018-08-19T19:26:57.323Z,22.40
2018-08-19T19:29:27.878Z,22.30
2018-08-19T19:31:58.892Z,22.20
2018-08-19T19:34:30.871Z,22.10
2018-08-19T19:37:01.269Z,22.10
2018-08-19T19:39:29.840Z,22.10
2018-08-19T19:42:03.475Z,22.20
2018-08-19T19:44:34.631Z,22.10
2018-08-19T19:47:04.027Z,22.20
2018-08-19T19:49:33.958Z,22.20
2018-08-19T19:52:03.976Z,22.10
2018-08-19T19:54:36.197Z,22.10
2018-08-19T19:57:04.692Z,22.20
2018-08-19T19:59:34.464Z,22.40
2018-08-19T20:02:03.479Z,22.30
2018-08-19T20:04:37.272Z,22.30
2018-08-19T20:07:06.420Z,22.40
2018-08-19T20:09:37.204Z,22.40
2018-08-19T20:12:08.242Z,22.40
2018-08-19T20:14:40.991Z,22.30
2018-08-19T20:17:09.474Z,22.20
2018-08-19T20:19:37.876Z,22.20
2018-08-19T20:22:13.195Z,22.20
2018-08-19T20:24:41.709Z,22.20
2018-08-19T20:27:11.215Z,22.20
2018-08-19T20:29:41.662Z,22.20
2018-08-19T20:32:11.186Z,22.20
2018-08-19T20:34:39.894Z,22.20
2018-08-19T20:37:10.338Z,22.20
2018-08-19T20:39:40.304Z,22.20
2018-08-19T20:42:09.430Z,22.20
2018-08-19T20:44:38.308Z,22.20
2018-08-19T20:47:08.570Z,22.10
2018-08-19T20:49:38.077Z,22.10
2018-08-19T20:52:06.705Z,22.20
2018-08-19T20:54:35.527Z,22.30
2018-08-19T20:57:04.775Z,22.30
2018-08-19T20:59:37.173Z,22.30
2018-08-19T21:02:07.504Z,22.30
2018-08-19T21:04:36.059Z,22.30
2018-08-19T21:07:07.225Z,22.30
2018-08-19T21:09:36.391Z,22.30
2018-08-19T21:12:05.900Z,22.30
2018-08-19T21:14:34.614Z,22.30
2018-08-19T21:17:04.708Z,22.40
2018-08-19T21:19:33.841Z,22.40
2018-08-19T21:22:02.411Z,22.40
2018-08-19T21:24:32.151Z,22.40
2018-08-19T21:27:02.494Z,22.40
2018-08-19T21:29:34.174Z,22.40
2018-08-19T21:32:03.283Z,22.40
2018-08-19T21:34:38.262Z,22.40
2018-08-19T21:37:06.788Z,22.40
2018-08-19T21:39:35.420Z,22.30
2018-08-19T21:42:04.030Z,22.30
2018-08-19T21:44:32.650Z,22.30
2018-08-19T21:47:01.150Z,22.30
2018-08-19T21:49:29.681Z,22.30
2018-08-19T21:51:58.137Z,22.30
2018-08-19T21:54:28.490Z,22.30
2018-08-19T21:56:57.775Z,22.30
2018-08-19T21:59:26.409Z,22.30
2018-08-19T22:01:57.870Z,22.30
2018-08-19T22:04:26.631Z,22.30
2018-08-19T22:06:55.324Z,22.30
2018-08-19T22:09:30.437Z,22.30
2018-08-19T22:12:00.509Z,22.40
2018-08-19T22:14:29.363Z,22.40
2018-08-19T22:17:12.506Z,22.40
2018-08-19T22:22:24.236Z,22.50
2018-08-19T22:24:52.799Z,22.30
2018-08-19T22:27:22.048Z,22.30
2018-08-19T22:29:50.485Z,22.40
2018-08-19T22:32:19.247Z,22.30
2018-08-19T22:34:47.807Z,22.40
2018-08-19T22:37:16.429Z,22.30
2018-08-19T22:39:46.365Z,22.30
2018-08-19T22:42:14.738Z,22.30
2018-08-19T22:44:43.166Z,22.20
2018-08-19T22:47:11.615Z,22.20
2018-08-19T22:49:40.031Z,22.20
2018-08-19T22:52:19.825Z,22.20
2018-08-19T22:54:50.066Z,22.10
2018-08-19T22:57:18.509Z,22.10
2018-08-19T22:59:46.962Z,22.20
2018-08-19T23:02:17.500Z,22.20
2018-08-19T23:04:46.645Z,22.20
2018-08-19T23:07:15.173Z,22.20
2018-08-19T23:09:43.571Z,22.20
2018-08-19T23:12:12.035Z,22.20
2018-08-19T23:14:51.630Z,22.20
2018-08-19T23:17:20.028Z,22.20
2018-08-19T23:19:49.557Z,22.20
2018-08-19T23:22:18.188Z,22.20
2018-08-19T23:24:46.944Z,22.20
2018-08-19T23:27:15.458Z,22.10
2018-08-19T23:29:43.895Z,22.10
2018-08-19T23:32:12.312Z,22.20
2018-08-19T23:34:40.875Z,22.20
2018-08-19T23:37:09.319Z,22.20
2018-08-19T23:39:37.765Z,22.30
2018-08-19T23:42:06.216Z,22.30
2018-08-19T23:44:34.648Z,22.30
2018-08-19T23:47:03.086Z,22.30
2018-08-19T23:49:31.574Z,22.20
2018-08-19T23:51:59.999Z,22.20
2018-08-19T23:54:28.455Z,22.20
2018-08-19T23:56:56.882Z,22.20
2018-08-19T23:59:31.509Z,22.20
